Time;durP1;ratioP1;P1;durP2;ratioP2;P2;SDS_P1;SDS_P2;PMS_P1;PMS_P2;Temp;Humidity;BMP_temperature;BMP_pressure;BME280_temperature;BME280_humidity;BME280_pressure;Samples;Min_cycle;Max_cycle;Signal;HPM_P1;HPM_P2
2023/04/11 00:00:30;;;;;;;0.30;0.30;;;9.60;99.90;;;;;;5024668;28;20270;-87
2023/04/11 00:03:00;;;;;;;0.20;0.20;;;9.50;99.90;;;;;;5030987;28;20181;-85
2023/04/11 00:05:27;;;;;;;0.20;0.20;;;9.60;99.90;;;;;;5032198;28;20885;-86
2023/04/11 00:07:52;;;;;;;0.30;0.30;;;9.50;99.90;;;;;;5033315;28;20418;-87
2023/04/11 00:10:18;;;;;;;0.20;0.20;;;9.60;99.90;;;;;;5031247;28;20502;-86
2023/04/11 00:12:43;;;;;;;0.20;0.20;;;9.50;99.90;;;;;;5022328;28;20246;-85
2023/04/11 00:15:09;;;;;;;0.30;0.30;;;9.60;99.90;;;;;;5046770;28;20265;-85
2023/04/11 00:17:36;;;;;;;0.30;0.30;;;9.60;99.90;;;;;;5041700;28;20963;-86
2023/04/11 00:20:06;;;;;;;0.30;0.30;;;9.60;99.90;;;;;;5034124;28;20652;-86
2023/04/11 00:22:32;;;;;;;0.20;0.20;;;9.50;99.90;;;;;;5031470;28;20820;-86
2023/04/11 00:24:57;;;;;;;0.20;0.20;;;9.60;99.90;;;;;;5031725;28;20445;-85
2023/04/11 00:27:23;;;;;;;0.20;0.20;;;9.50;99.90;;;;;;5041044;28;20446;-86
2023/04/11 00:29:48;;;;;;;0.30;0.30;;;9.50;99.90;;;;;;5030089;28;20186;-85
2023/04/11 00:32:14;;;;;;;0.30;0.30;;;9.60;99.90;;;;;;5027507;28;21048;-86
2023/04/11 00:34:40;;;;;;;0.20;0.20;;;9.60;99.90;;;;;;5028338;28;20198;-87
2023/04/11 00:37:05;;;;;;;0.30;0.30;;;9.60;99.90;;;;;;5027186;28;20194;-85
2023/04/11 00:39:33;;;;;;;0.20;0.20;;;9.50;99.90;;;;;;5040827;28;20558;-85
2023/04/11 00:42:08;;;;;;;0.20;0.20;;;9.50;99.90;;;;;;5044166;28;20214;-85
2023/04/11 00:44:35;;;;;;;0.20;0.20;;;9.50;99.90;;;;;;5046128;28;20445;-87
2023/04/11 00:47:02;;;;;;;0.20;0.20;;;9.40;99.90;;;;;;5031613;28;20476;-86
2023/04/11 00:49:28;;;;;;;0.30;0.30;;;9.40;99.90;;;;;;5030906;28;20445;-85
2023/04/11 00:51:54;;;;;;;0.30;0.30;;;9.40;99.90;;;;;;5049334;28;20472;-84
2023/04/11 00:54:20;;;;;;;0.30;0.30;;;9.40;99.90;;;;;;5027350;28;21191;-85
2023/04/11 00:56:45;;;;;;;0.30;0.30;;;9.40;99.90;;;;;;5044969;28;20236;-85
2023/04/11 00:59:11;;;;;;;0.30;0.30;;;9.40;99.90;;;;;;5026549;28;20193;-87
2023/04/11 01:01:37;;;;;;;0.30;0.30;;;9.30;99.90;;;;;;5050052;28;20520;-87
2023/04/11 01:04:04;;;;;;;0.30;0.30;;;9.20;99.90;;;;;;5028926;28;20229;-85
2023/04/11 01:06:31;;;;;;;0.30;0.30;;;9.30;99.90;;;;;;5033620;28;20183;-86
2023/04/11 01:08:56;;;;;;;0.30;0.30;;;9.30;99.90;;;;;;5039288;28;20844;-86
2023/04/11 01:11:22;;;;;;;0.30;0.30;;;9.20;99.90;;;;;;5024585;28;20528;-86
2023/04/11 01:13:49;;;;;;;0.30;0.30;;;9.20;99.90;;;;;;5024926;28;20643;-86
2023/04/11 01:16:20;;;;;;;0.30;0.30;;;9.30;99.90;;;;;;5045302;28;20451;-86
2023/04/11 01:18:48;;;;;;;0.20;0.20;;;9.30;99.90;;;;;;5030975;28;21475;-86
2023/04/11 01:21:16;;;;;;;0.20;0.20;;;9.20;99.90;;;;;;5046921;28;20437;-86
2023/04/11 01:23:41;;;;;;;0.20;0.20;;;9.30;99.90;;;;;;5048867;28;20451;-86
2023/04/11 01:26:07;;;;;;;0.20;0.20;;;9.30;99.90;;;;;;5030622;28;20434;-86
2023/04/11 01:28:32;;;;;;;0.30;0.30;;;9.40;99.90;;;;;;5047760;28;20186;-86
2023/04/11 01:30:58;;;;;;;0.20;0.20;;;9.30;99.90;;;;;;5042705;28;20182;-85
2023/04/11 01:33:23;;;;;;;0.23;0.23;;;9.40;99.90;;;;;;5046810;28;20190;-87
2023/04/11 01:35:49;;;;;;;0.30;0.30;;;9.30;99.90;;;;;;5047411;28;20182;-85
2023/04/11 01:38:15;;;;;;;0.30;0.30;;;9.10;99.90;;;;;;5030157;28;20254;-85
2023/04/11 01:40:40;;;;;;;0.20;0.20;;;9.20;99.90;;;;;;5024013;28;20176;-85
2023/04/11 01:43:08;;;;;;;0.30;0.30;;;9.10;99.90;;;;;;5033931;28;20222;-84
2023/04/11 01:45:35;;;;;;;0.30;0.30;;;9.10;99.90;;;;;;5044833;28;20245;-85
2023/04/11 01:48:05;;;;;;;0.30;0.30;;;9.00;99.90;;;;;;5033172;28;20487;-85
2023/04/11 01:50:31;;;;;;;0.30;0.30;;;8.90;99.90;;;;;;5028928;28;20532;-85
2023/04/11 01:52:56;;;;;;;0.30;0.30;;;9.00;99.90;;;;;;5046227;28;20596;-84
2023/04/11 01:55:22;;;;;;;0.27;0.27;;;8.90;99.90;;;;;;5048510;28;20195;-84
2023/04/11 01:57:47;;;;;;;0.30;0.30;;;9.00;99.90;;;;;;5050007;28;20190;-83
2023/04/11 02:00:13;;;;;;;0.30;0.30;;;8.90;99.90;;;;;;5047458;28;20187;-85
2023/04/11 02:02:39;;;;;;;0.30;0.30;;;8.90;99.90;;;;;;5020405;28;20191;-84
2023/04/11 02:05:05;;;;;;;0.30;0.30;;;8.90;99.90;;;;;;5026938;28;20984;-84
2023/04/11 02:07:30;;;;;;;0.27;0.27;;;8.80;99.90;;;;;;5043830;28;20269;-85
2023/04/11 02:09:56;;;;;;;0.30;0.30;;;8.80;99.90;;;;;;5047560;28;20812;-84
2023/04/11 02:12:22;;;;;;;0.30;0.30;;;8.70;99.90;;;;;;5031536;28;20795;-84
2023/04/11 02:14:48;;;;;;;0.20;0.20;;;8.80;99.90;;;;;;5048739;28;20441;-85
2023/04/11 02:17:16;;;;;;;0.20;0.20;;;8.80;99.90;;;;;;5031519;28;20571;-86
2023/04/11 02:19:44;;;;;;;0.30;0.30;;;8.70;99.90;;;;;;5036973;28;21028;-87
2023/04/11 02:22:10;;;;;;;0.20;0.20;;;8.50;99.90;;;;;;5026697;28;20451;-86
2023/04/11 02:24:36;;;;;;;0.30;0.30;;;8.60;99.90;;;;;;5030748;28;20441;-85
2023/04/11 02:27:02;;;;;;;0.30;0.30;;;8.60;99.90;;;;;;5048573;28;20452;-86
2023/04/11 02:29:27;;;;;;;0.30;0.30;;;8.60;99.90;;;;;;5031370;28;20659;-86
2023/04/11 02:31:53;;;;;;;0.30;0.30;;;8.70;99.90;;;;;;5048150;28;20465;-86
2023/04/11 02:34:19;;;;;;;0.30;0.30;;;8.80;99.90;;;;;;5046777;28;20218;-86
2023/04/11 02:36:45;;;;;;;0.20;0.20;;;8.70;99.90;;;;;;5024000;28;20196;-87
2023/04/11 02:39:11;;;;;;;0.30;0.30;;;8.70;99.90;;;;;;5040225;28;20264;-86
2023/04/11 02:41:40;;;;;;;0.30;0.30;;;8.80;99.90;;;;;;5053156;28;20193;-87
2023/04/11 02:44:07;;;;;;;0.30;0.30;;;8.70;99.90;;;;;;5051022;28;20951;-86
2023/04/11 02:46:33;;;;;;;0.30;0.30;;;8.70;99.90;;;;;;5047750;28;20477;-88
2023/04/11 02:48:58;;;;;;;0.23;0.23;;;8.70;99.90;;;;;;5030145;28;20450;-87
2023/04/11 02:51:24;;;;;;;0.30;0.30;;;8.80;99.90;;;;;;5042793;28;20254;-87
2023/04/11 02:53:51;;;;;;;0.30;0.30;;;8.70;99.90;;;;;;5031318;28;20183;-87
2023/04/11 02:56:18;;;;;;;0.30;0.30;;;8.80;99.90;;;;;;5052669;28;20456;-86
2023/04/11 02:58:47;;;;;;;0.30;0.30;;;8.80;99.90;;;;;;5034264;28;20536;-88
2023/04/11 03:01:15;;;;;;;0.30;0.30;;;8.80;99.90;;;;;;5036228;28;20483;-88
2023/04/11 03:03:41;;;;;;;0.20;0.20;;;8.70;99.90;;;;;;5035613;28;20464;-87
2023/04/11 03:06:07;;;;;;;0.30;0.30;;;8.70;99.90;;;;;;5031873;28;20958;-88
2023/04/11 03:08:34;;;;;;;0.30;0.30;;;8.80;99.90;;;;;;5024463;28;20709;-88
2023/04/11 03:11:00;;;;;;;0.30;0.30;;;8.70;99.90;;;;;;5024584;28;20179;-88
2023/04/11 03:13:26;;;;;;;0.30;0.30;;;8.70;99.90;;;;;;5049322;28;20476;-87
2023/04/11 03:15:51;;;;;;;0.27;0.27;;;8.70;99.90;;;;;;5047183;28;20929;-89
2023/04/11 03:18:17;;;;;;;0.30;0.30;;;8.70;99.90;;;;;;5054057;28;20526;-88
2023/04/11 03:20:43;;;;;;;0.30;0.30;;;8.70;99.90;;;;;;5036036;28;20700;-88
2023/04/11 03:23:09;;;;;;;0.20;0.20;;;8.70;99.90;;;;;;5050418;28;20214;-86
2023/04/11 03:25:36;;;;;;;0.30;0.30;;;8.70;99.90;;;;;;5023337;28;20950;-88
2023/04/11 03:28:02;;;;;;;0.20;0.20;;;8.70;99.90;;;;;;5030112;28;20179;-88
2023/04/11 03:30:28;;;;;;;0.23;0.23;;;8.70;99.90;;;;;;5029588;28;20454;-88
2023/04/11 03:32:53;;;;;;;0.30;0.30;;;8.70;99.90;;;;;;5035966;28;20485;-89
2023/04/11 03:35:19;;;;;;;0.30;0.30;;;8.70;99.90;;;;;;5034675;28;20269;-89
2023/04/11 03:37:45;;;;;;;0.30;0.30;;;8.60;99.90;;;;;;5032306;28;20192;-87
2023/04/11 03:40:11;;;;;;;0.20;0.20;;;8.60;99.90;;;;;;5031788;28;20192;-86
2023/04/11 03:42:37;;;;;;;0.20;0.20;;;8.70;99.90;;;;;;5024100;28;20468;-87
2023/04/11 03:45:03;;;;;;;0.20;0.20;;;8.60;99.90;;;;;;5051920;28;20519;-85
2023/04/11 03:47:29;;;;;;;0.23;0.23;;;8.70;99.90;;;;;;5052087;28;20187;-87
2023/04/11 03:49:54;;;;;;;0.23;0.23;;;8.70;99.90;;;;;;5035410;28;20440;-87
2023/04/11 03:52:20;;;;;;;0.20;0.20;;;8.60;99.90;;;;;;5028284;28;20585;-86
2023/04/11 03:54:45;;;;;;;0.20;0.20;;;8.80;99.90;;;;;;5015730;28;20187;-86
2023/04/11 03:57:11;;;;;;;0.30;0.30;;;8.70;99.90;;;;;;5028940;28;20190;-88
2023/04/11 03:59:36;;;;;;;0.30;0.30;;;8.60;99.90;;;;;;5048379;28;20651;-87
2023/04/11 04:02:02;;;;;;;0.30;0.30;;;8.60;99.90;;;;;;5049715;28;20198;-87
2023/04/11 04:04:27;;;;;;;0.20;0.20;;;8.60;99.90;;;;;;5033995;28;20238;-88
2023/04/11 04:06:55;;;;;;;0.20;0.20;;;8.50;99.90;;;;;;5032735;28;20628;-88
2023/04/11 04:09:22;;;;;;;0.30;0.30;;;8.50;99.90;;;;;;5052460;28;20182;-88
2023/04/11 04:11:47;;;;;;;0.30;0.30;;;8.40;99.90;;;;;;5050358;28;20503;-89
2023/04/11 04:14:13;;;;;;;0.30;0.30;;;8.40;99.90;;;;;;5027165;28;20446;-87
2023/04/11 04:16:38;;;;;;;0.30;0.30;;;8.30;99.90;;;;;;5027234;28;21049;-87
2023/04/11 04:19:04;;;;;;;0.30;0.30;;;8.30;99.90;;;;;;5035089;28;20266;-88
2023/04/11 04:21:31;;;;;;;0.30;0.30;;;8.30;99.90;;;;;;5052190;28;20290;-88
2023/04/11 04:24:02;;;;;;;0.30;0.30;;;8.20;99.90;;;;;;5027652;28;20790;-87
2023/04/11 04:26:28;;;;;;;0.30;0.30;;;8.20;99.90;;;;;;5042428;28;20437;-88
2023/04/11 04:28:56;;;;;;;0.27;0.27;;;8.20;99.90;;;;;;5047852;28;20472;-87
2023/04/11 04:31:24;;;;;;;0.30;0.30;;;8.20;99.90;;;;;;5027421;28;20460;-88
2023/04/11 04:33:50;;;;;;;0.30;0.30;;;8.10;99.90;;;;;;5030859;28;20444;-88
2023/04/11 04:36:16;;;;;;;0.30;0.30;;;8.00;99.90;;;;;;5033113;28;20513;-87
2023/04/11 04:38:44;;;;;;;0.30;0.30;;;7.90;99.90;;;;;;5028313;28;20448;-88
2023/04/11 04:41:20;;;;;;;0.30;0.30;;;7.90;99.90;;;;;;5035239;28;20921;-88
2023/04/11 04:43:47;;;;;;;0.30;0.30;;;7.80;99.90;;;;;;5031178;28;20434;-88
2023/04/11 04:46:13;;;;;;;0.30;0.30;;;7.70;99.90;;;;;;5045564;28;20474;-88
2023/04/11 04:48:38;;;;;;;0.30;0.30;;;7.70;99.90;;;;;;5051946;28;20528;-88
2023/04/11 04:51:05;;;;;;;0.30;0.30;;;7.70;99.90;;;;;;5030858;28;20376;-88
2023/04/11 04:53:33;;;;;;;0.30;0.30;;;7.60;99.90;;;;;;5051802;28;20197;-88
2023/04/11 04:56:00;;;;;;;0.30;0.30;;;7.50;99.90;;;;;;5051964;28;20451;-87
2023/04/11 04:58:26;;;;;;;0.30;0.30;;;7.50;99.90;;;;;;5033235;28;20449;-88
2023/04/11 05:00:54;;;;;;;0.30;0.30;;;7.50;99.90;;;;;;5045723;28;20480;-89
2023/04/11 05:03:21;;;;;;;0.30;0.30;;;7.40;99.90;;;;;;5042001;28;20441;-86
2023/04/11 05:05:47;;;;;;;0.30;0.30;;;7.50;99.90;;;;;;5046415;28;20429;-87
2023/04/11 05:08:12;;;;;;;0.30;0.30;;;7.50;99.90;;;;;;5030777;28;20441;-88
2023/04/11 05:10:38;;;;;;;0.30;0.30;;;7.40;99.90;;;;;;5049468;28;20254;-88
2023/04/11 05:13:03;;;;;;;0.30;0.30;;;7.40;99.90;;;;;;5031425;28;20223;-88
2023/04/11 05:15:29;;;;;;;0.30;0.30;;;7.30;99.90;;;;;;5025765;28;20180;-88
2023/04/11 05:17:54;;;;;;;0.20;0.20;;;7.30;99.90;;;;;;5031439;28;20194;-88
2023/04/11 05:20:20;;;;;;;0.30;0.30;;;7.30;99.90;;;;;;5027710;28;20282;-88
2023/04/11 05:22:47;;;;;;;0.30;0.30;;;7.30;99.90;;;;;;5024425;28;20179;-86
2023/04/11 05:25:13;;;;;;;0.30;0.30;;;7.30;99.90;;;;;;5049369;28;20477;-87
2023/04/11 05:27:38;;;;;;;0.30;0.30;;;7.30;99.90;;;;;;5025654;28;20473;-87
2023/04/11 05:30:05;;;;;;;0.30;0.30;;;7.40;99.90;;;;;;5028087;28;20180;-88
2023/04/11 05:32:30;;;;;;;0.30;0.30;;;7.40;99.90;;;;;;5045176;28;20226;-88
2023/04/11 05:34:56;;;;;;;0.30;0.30;;;7.40;99.90;;;;;;5045846;28;20424;-88
2023/04/11 05:37:22;;;;;;;0.30;0.30;;;7.30;99.90;;;;;;5030418;28;20191;-87
2023/04/11 05:39:47;;;;;;;0.30;0.30;;;7.40;99.90;;;;;;5033553;28;20190;-87
2023/04/11 05:42:16;;;;;;;0.30;0.30;;;7.40;99.90;;;;;;5027402;28;20196;-86
2023/04/11 05:44:42;;;;;;;0.30;0.30;;;7.40;99.90;;;;;;5046271;28;20344;-86
2023/04/11 05:47:07;;;;;;;0.30;0.30;;;7.30;99.90;;;;;;5045121;28;20494;-87
2023/04/11 05:49:33;;;;;;;0.30;0.30;;;7.40;99.90;;;;;;5026471;28;20653;-88
2023/04/11 05:51:58;;;;;;;0.30;0.30;;;7.50;99.90;;;;;;5022721;28;20272;-87
2023/04/11 05:54:35;;;;;;;0.30;0.30;;;7.50;99.90;;;;;;5022744;28;20225;-87
2023/04/11 05:57:02;;;;;;;0.30;0.30;;;7.50;99.90;;;;;;5018924;28;20198;-86
2023/04/11 05:59:30;;;;;;;0.30;0.30;;;7.50;99.90;;;;;;5020787;28;20443;-86
2023/04/11 06:01:56;;;;;;;0.30;0.30;;;7.40;99.90;;;;;;5026156;28;20445;-86
2023/04/11 06:04:22;;;;;;;0.30;0.30;;;7.30;99.90;;;;;;5027680;28;20445;-87
2023/04/11 06:06:47;;;;;;;0.30;0.30;;;7.40;99.90;;;;;;5023493;28;20488;-85
2023/04/11 06:09:13;;;;;;;0.30;0.30;;;7.40;99.90;;;;;;5023065;28;20195;-86
2023/04/11 06:11:38;;;;;;;0.30;0.30;;;7.40;99.90;;;;;;5023193;28;20256;-85
2023/04/11 06:14:04;;;;;;;0.30;0.30;;;7.40;99.90;;;;;;5043576;28;20240;-86
2023/04/11 06:16:32;;;;;;;0.30;0.30;;;7.40;99.90;;;;;;5046182;28;20218;-85
2023/04/11 06:18:58;;;;;;;0.30;0.30;;;7.30;99.90;;;;;;5027890;28;21103;-87
2023/04/11 06:21:23;;;;;;;0.30;0.30;;;7.20;99.90;;;;;;5046154;28;20439;-84
2023/04/11 06:23:49;;;;;;;0.30;0.30;;;7.10;99.90;;;;;;5025184;28;20183;-87
2023/04/11 06:26:14;;;;;;;0.30;0.30;;;7.30;99.90;;;;;;5026204;28;20222;-87
2023/04/11 06:28:40;;;;;;;0.30;0.30;;;7.20;99.90;;;;;;5027307;28;20210;-87
2023/04/11 06:31:08;;;;;;;0.30;0.30;;;7.40;99.90;;;;;;5024862;28;20182;-89
2023/04/11 06:33:33;;;;;;;0.30;0.30;;;7.30;99.90;;;;;;5024880;28;20596;-91
2023/04/11 06:35:59;;;;;;;0.30;0.30;;;7.20;99.90;;;;;;5046057;28;20433;-91
2023/04/11 06:38:24;;;;;;;0.30;0.30;;;7.00;99.90;;;;;;5050414;28;20187;-92
2023/04/11 06:40:51;;;;;;;0.30;0.30;;;6.90;99.90;;;;;;5047746;28;20313;-93
2023/04/11 06:43:16;;;;;;;0.30;0.30;;;7.10;99.90;;;;;;5049747;28;20643;-92
2023/04/11 06:45:42;;;;;;;0.30;0.30;;;7.30;99.90;;;;;;5049035;28;20515;-90
2023/04/11 06:48:07;;;;;;;0.30;0.30;;;7.00;99.90;;;;;;5031107;28;20279;-88
2023/04/11 06:50:37;;;;;;;0.30;0.30;;;7.00;99.90;;;;;;5045177;28;20195;-88
2023/04/11 06:53:03;;;;;;;0.30;0.30;;;6.90;99.90;;;;;;5046304;28;20674;-89
2023/04/11 06:55:28;;;;;;;0.30;0.30;;;7.10;99.90;;;;;;5038403;28;20437;-88
2023/04/11 06:57:54;;;;;;;0.30;0.30;;;7.10;99.90;;;;;;5047091;28;20193;-88
2023/04/11 07:00:20;;;;;;;0.30;0.30;;;7.20;99.90;;;;;;5033822;28;20236;-93
2023/04/11 07:02:45;;;;;;;0.30;0.30;;;7.10;99.90;;;;;;5035161;28;20228;-91
2023/04/11 07:05:11;;;;;;;0.30;0.30;;;7.10;99.90;;;;;;5036086;28;20433;-92
2023/04/11 07:07:37;;;;;;;0.30;0.30;;;7.10;99.90;;;;;;5033446;28;20659;-91
2023/04/11 07:10:03;;;;;;;0.30;0.30;;;7.00;99.90;;;;;;5033082;28;20182;-91
2023/04/11 07:12:29;;;;;;;0.40;0.40;;;7.10;99.90;;;;;;5044052;28;20563;-89
2023/04/11 07:14:54;;;;;;;0.30;0.30;;;7.20;99.90;;;;;;5030224;28;20448;-90
2023/04/11 07:17:20;;;;;;;0.30;0.30;;;7.10;99.90;;;;;;5045813;28;20187;-91
2023/04/11 07:19:45;;;;;;;0.30;0.30;;;7.20;99.90;;;;;;5048375;28;20332;-90
2023/04/11 07:22:11;;;;;;;0.30;0.30;;;7.10;99.90;;;;;;5031797;28;20211;-92
2023/04/11 07:24:36;;;;;;;0.30;0.30;;;7.20;99.90;;;;;;5045895;28;20752;-92
2023/04/11 07:27:02;;;;;;;0.30;0.30;;;7.40;99.90;;;;;;5038868;28;20613;-90
2023/04/11 07:29:27;;;;;;;0.30;0.30;;;7.60;99.90;;;;;;5032338;28;20527;-89
2023/04/11 07:31:53;;;;;;;0.30;0.30;;;7.70;99.90;;;;;;5034935;28;20217;-92
2023/04/11 07:34:19;;;;;;;0.30;0.30;;;7.80;99.90;;;;;;5039028;28;20666;-94
2023/04/11 07:36:45;;;;;;;0.30;0.30;;;8.00;99.90;;;;;;5038239;28;20452;-89
2023/04/11 07:39:12;;;;;;;0.20;0.20;;;7.90;99.90;;;;;;5030257;28;20690;-91
2023/04/11 07:41:38;;;;;;;0.30;0.30;;;8.10;99.90;;;;;;5037363;28;20178;-92
2023/04/11 07:44:08;;;;;;;0.30;0.30;;;8.20;99.90;;;;;;5038651;28;20456;-90
2023/04/11 07:46:34;;;;;;;0.30;0.30;;;8.30;99.90;;;;;;5029276;28;20228;-91
2023/04/11 07:48:59;;;;;;;0.20;0.20;;;8.40;99.90;;;;;;5033503;28;20441;-89
2023/04/11 07:51:26;;;;;;;0.30;0.30;;;8.60;99.90;;;;;;5052948;28;20631;-90
2023/04/11 07:53:51;;;;;;;0.30;0.30;;;8.60;99.90;;;;;;5032816;28;20201;-89
2023/04/11 07:56:17;;;;;;;0.20;0.20;;;8.50;99.90;;;;;;5034563;28;20897;-88
2023/04/11 07:58:42;;;;;;;0.30;0.30;;;8.60;99.90;;;;;;5052915;28;20233;-88
2023/04/11 08:01:19;;;;;;;0.30;0.30;;;8.60;99.90;;;;;;5033429;28;20179;-88
2023/04/11 08:03:45;;;;;;;0.20;0.20;;;8.60;99.90;;;;;;5048697;28;20190;-87
2023/04/11 08:06:10;;;;;;;0.20;0.20;;;8.60;99.90;;;;;;5048088;28;20446;-86
2023/04/11 08:08:36;;;;;;;0.30;0.30;;;8.50;99.90;;;;;;5033126;28;20281;-86
2023/04/11 08:11:01;;;;;;;0.30;0.30;;;8.40;99.90;;;;;;5050101;28;20193;-88
2023/04/11 08:13:27;;;;;;;0.30;0.30;;;8.20;99.90;;;;;;5046084;28;20580;-89
2023/04/11 08:15:52;;;;;;;0.20;0.20;;;8.30;99.90;;;;;;5029427;28;20221;-88
2023/04/11 08:18:20;;;;;;;0.30;0.30;;;8.50;99.90;;;;;;5033848;28;20191;-86
2023/04/11 08:20:48;;;;;;;0.30;0.30;;;8.60;99.90;;;;;;5048192;28;20182;-86
2023/04/11 08:23:14;;;;;;;0.30;0.30;;;8.70;99.90;;;;;;5032678;28;20511;-88
2023/04/11 08:25:40;;;;;;;0.30;0.30;;;8.60;99.90;;;;;;5051070;28;20456;-88
2023/04/11 08:28:08;;;;;;;0.30;0.30;;;8.50;99.90;;;;;;5032585;28;20187;-87
2023/04/11 08:30:34;;;;;;;0.20;0.20;;;8.50;99.90;;;;;;5030470;28;20473;-88
2023/04/11 08:33:00;;;;;;;0.30;0.30;;;8.70;99.90;;;;;;5024883;28;21069;-87
2023/04/11 08:35:26;;;;;;;0.30;0.30;;;8.70;99.90;;;;;;5050691;28;20235;-88
2023/04/11 08:37:52;;;;;;;0.30;0.30;;;8.60;99.90;;;;;;5045870;28;20554;-87
2023/04/11 08:40:17;;;;;;;0.20;0.20;;;8.80;99.90;;;;;;5049525;28;20550;-86
2023/04/11 08:42:44;;;;;;;0.30;0.30;;;8.70;99.90;;;;;;5045024;28;20793;-87
2023/04/11 08:45:11;;;;;;;0.30;0.30;;;8.70;99.90;;;;;;5028268;28;20698;-87
2023/04/11 08:47:37;;;;;;;0.30;0.30;;;8.60;99.90;;;;;;5042310;28;20459;-86
2023/04/11 08:50:06;;;;;;;0.30;0.30;;;8.70;99.90;;;;;;5022787;28;20585;-86
2023/04/11 08:52:32;;;;;;;0.20;0.20;;;8.90;99.90;;;;;;5046308;28;20218;-86
2023/04/11 08:54:57;;;;;;;0.20;0.20;;;8.70;99.90;;;;;;5028020;28;20823;-85
2023/04/11 08:57:26;;;;;;;0.30;0.30;;;8.70;99.90;;;;;;5026307;28;20442;-87
2023/04/11 08:59:53;;;;;;;0.30;0.30;;;8.60;99.90;;;;;;5044481;28;20187;-87
2023/04/11 09:02:19;;;;;;;0.20;0.20;;;8.50;99.90;;;;;;5031327;28;21024;-86
2023/04/11 09:04:46;;;;;;;0.30;0.30;;;8.50;99.90;;;;;;5044898;28;20523;-86
2023/04/11 09:07:11;;;;;;;0.20;0.20;;;8.60;99.90;;;;;;5044232;28;20218;-87
2023/04/11 09:09:38;;;;;;;0.23;0.23;;;8.90;99.90;;;;;;5030164;28;20476;-86
2023/04/11 09:12:04;;;;;;;0.20;0.20;;;8.80;99.90;;;;;;5047880;28;20226;-86
2023/04/11 09:14:30;;;;;;;0.30;0.30;;;8.90;99.90;;;;;;5052226;28;20496;-87
2023/04/11 09:17:05;;;;;;;0.20;0.20;;;9.00;99.90;;;;;;5029840;28;20445;-86
2023/04/11 09:19:34;;;;;;;0.30;0.30;;;9.00;99.90;;;;;;5028782;28;20446;-86
2023/04/11 09:22:02;;;;;;;0.30;0.30;;;8.90;99.90;;;;;;5022707;28;20859;-87
2023/04/11 09:24:28;;;;;;;0.20;0.20;;;8.70;99.90;;;;;;5035804;28;20464;-85
2023/04/11 09:27:08;;;;;;;0.30;0.30;;;8.50;99.90;;;;;;5027420;28;20457;-84
2023/04/11 09:29:39;;;;;;;0.30;0.30;;;8.20;99.90;;;;;;5044897;28;20457;-84
2023/04/11 09:32:05;;;;;;;0.30;0.30;;;8.30;99.90;;;;;;5038900;28;20489;-86
2023/04/11 09:34:32;;;;;;;0.30;0.30;;;8.30;99.90;;;;;;5041188;28;20969;-85
2023/04/11 09:36:58;;;;;;;0.30;0.30;;;8.30;99.90;;;;;;5045243;28;20933;-86
2023/04/11 09:39:27;;;;;;;0.30;0.30;;;8.20;99.90;;;;;;5037412;28;20456;-85
2023/04/11 09:41:52;;;;;;;0.30;0.30;;;8.10;99.90;;;;;;5046358;28;20191;-85
2023/04/11 09:44:18;;;;;;;0.30;0.30;;;8.30;99.90;;;;;;5026463;28;20865;-84
2023/04/11 09:46:57;;;;;;;0.30;0.30;;;8.40;99.90;;;;;;5018417;28;20188;-86
2023/04/11 09:49:23;;;;;;;0.30;0.30;;;8.40;99.90;;;;;;5030484;28;20320;-86
2023/04/11 09:51:50;;;;;;;0.30;0.30;;;8.50;99.90;;;;;;5029443;28;20465;-87
2023/04/11 09:54:17;;;;;;;0.20;0.20;;;8.70;99.90;;;;;;5025830;28;20445;-84
2023/04/11 09:56:42;;;;;;;0.20;0.20;;;8.70;99.90;;;;;;5027812;28;20437;-85
2023/04/11 09:59:08;;;;;;;0.20;0.20;;;9.00;99.90;;;;;;5029427;28;20464;-85
2023/04/11 10:01:35;;;;;;;0.20;0.20;;;9.40;99.90;;;;;;5025907;28;20186;-86
2023/04/11 10:04:03;;;;;;;0.20;0.20;;;9.80;99.90;;;;;;5029549;28;20182;-85
2023/04/11 10:06:33;;;;;;;0.20;0.20;;;10.00;99.90;;;;;;5050523;28;20409;-85
2023/04/11 10:09:11;;;;;;;0.20;0.20;;;10.80;99.90;;;;;;5027264;28;20477;-85
2023/04/11 10:11:40;;;;;;;0.20;0.20;;;10.60;99.90;;;;;;5045113;28;20487;-86
2023/04/11 10:14:05;;;;;;;0.20;0.20;;;10.20;99.90;;;;;;5048319;28;20456;-85
2023/04/11 10:16:32;;;;;;;0.20;0.20;;;10.00;99.90;;;;;;5042369;28;20441;-87
2023/04/11 10:19:01;;;;;;;0.27;0.27;;;9.50;99.90;;;;;;5042652;28;20187;-86
2023/04/11 10:21:32;;;;;;;0.30;0.30;;;9.10;99.90;;;;;;5047901;28;20556;-85
2023/04/11 10:24:15;;;;;;;0.30;0.30;;;9.00;99.90;;;;;;5043658;28;20812;-87
2023/04/11 10:26:50;;;;;;;0.20;0.20;;;9.10;99.90;;;;;;5044609;28;20813;-86
2023/04/11 10:29:28;;;;;;;0.20;0.20;;;9.20;99.90;;;;;;5030636;28;20906;-87
2023/04/11 10:32:12;;;;;;;0.20;0.20;;;9.30;99.90;;;;;;5042257;28;20472;-87
2023/04/11 10:34:40;;;;;;;0.20;0.20;;;9.50;99.90;;;;;;5049415;28;20445;-86
2023/04/11 10:37:08;;;;;;;0.20;0.20;;;9.50;99.90;;;;;;5046507;28;20437;-87
2023/04/11 10:39:52;;;;;;;0.30;0.30;;;9.50;99.90;;;;;;5048767;28;20428;-86
2023/04/11 10:42:32;;;;;;;0.20;0.20;;;9.60;99.90;;;;;;5032349;28;20440;-86
2023/04/11 10:45:23;;;;;;;0.20;0.20;;;9.50;99.90;;;;;;5046023;28;20480;-85
2023/04/11 10:48:10;;;;;;;0.20;0.20;;;9.60;99.90;;;;;;5045084;28;20441;-86
2023/04/11 10:50:41;;;;;;;0.20;0.20;;;9.60;99.90;;;;;;5040024;28;20535;-85
2023/04/11 10:53:13;;;;;;;0.20;0.20;;;9.50;99.90;;;;;;5036155;28;20840;-86
2023/04/11 10:55:48;;;;;;;0.20;0.20;;;9.40;99.90;;;;;;5047749;28;20440;-86
2023/04/11 10:58:15;;;;;;;0.20;0.20;;;9.40;99.90;;;;;;5048897;28;20429;-86
2023/04/11 11:00:48;;;;;;;0.30;0.30;;;9.40;99.90;;;;;;5047550;28;20424;-86
2023/04/11 11:03:33;;;;;;;0.20;0.20;;;9.30;99.90;;;;;;5052811;28;20487;-87
2023/04/11 11:06:06;;;;;;;0.30;0.30;;;9.00;99.90;;;;;;5053138;28;20913;-86
2023/04/11 11:08:45;;;;;;;0.20;0.20;;;8.90;99.90;;;;;;5052624;28;20440;-85
2023/04/11 11:11:11;;;;;;;0.30;0.30;;;8.80;99.90;;;;;;5054105;28;20449;-86
2023/04/11 11:13:42;;;;;;;0.30;0.30;;;8.90;99.90;;;;;;5053400;28;20876;-86
2023/04/11 11:16:12;;;;;;;0.30;0.30;;;8.80;99.90;;;;;;5048914;28;20468;-86
2023/04/11 11:18:38;;;;;;;0.20;0.20;;;8.70;99.90;;;;;;5045148;28;20437;-90
2023/04/11 11:21:04;;;;;;;0.30;0.30;;;8.90;99.90;;;;;;5050031;28;20789;-91
2023/04/11 11:23:29;;;;;;;0.30;0.30;;;9.00;99.90;;;;;;5055070;28;20658;-89
2023/04/11 11:25:57;;;;;;;0.30;0.30;;;8.90;99.90;;;;;;5053466;28;20447;-90
2023/04/11 11:28:23;;;;;;;0.30;0.30;;;9.00;99.90;;;;;;5044766;28;20191;-91
2023/04/11 11:30:53;;;;;;;0.30;0.30;;;8.90;99.90;;;;;;5034820;28;20821;-91
2023/04/11 11:33:21;;;;;;;0.23;0.23;;;8.90;99.90;;;;;;5049333;28;20469;-89
2023/04/11 11:35:54;;;;;;;0.30;0.30;;;8.70;99.90;;;;;;5033853;28;20495;-89
2023/04/11 11:38:21;;;;;;;0.30;0.30;;;8.70;99.90;;;;;;5033650;28;20444;-87
2023/04/11 11:40:48;;;;;;;0.20;0.20;;;8.70;99.90;;;;;;5052058;28;20445;-86
2023/04/11 11:43:15;;;;;;;0.30;0.30;;;8.80;99.90;;;;;;5048996;28;20463;-85
2023/04/11 11:45:41;;;;;;;0.30;0.30;;;8.60;99.90;;;;;;5046652;28;20530;-88
2023/04/11 11:48:07;;;;;;;0.20;0.20;;;8.30;99.90;;;;;;5052163;28;20874;-87
2023/04/11 11:50:32;;;;;;;0.30;0.30;;;8.20;99.90;;;;;;5049811;28;20551;-85
2023/04/11 11:53:14;;;;;;;0.20;0.20;;;8.20;99.90;;;;;;5032964;28;20245;-84
2023/04/11 11:55:40;;;;;;;0.30;0.30;;;8.00;99.90;;;;;;5029677;28;20286;-85
2023/04/11 11:58:05;;;;;;;0.30;0.30;;;8.00;99.90;;;;;;5044965;28;20980;-84
2023/04/11 12:00:38;;;;;;;0.30;0.30;;;7.90;99.90;;;;;;5028111;28;20440;-85
2023/04/11 12:03:05;;;;;;;0.30;0.30;;;7.80;99.90;;;;;;5040542;28;20174;-87
2023/04/11 12:05:32;;;;;;;0.30;0.30;;;7.60;99.90;;;;;;5051688;28;20444;-87
2023/04/11 12:08:00;;;;;;;0.30;0.30;;;7.50;99.90;;;;;;5051540;28;20444;-89
2023/04/11 12:10:35;;;;;;;0.40;0.40;;;7.50;99.90;;;;;;5033891;28;20477;-88
2023/04/11 12:13:00;;;;;;;0.30;0.30;;;7.50;99.90;;;;;;5032887;28;20487;-88
2023/04/11 12:15:26;;;;;;;0.30;0.30;;;7.30;99.90;;;;;;5032847;28;20853;-87
2023/04/11 12:17:53;;;;;;;0.30;0.30;;;7.30;99.90;;;;;;5034018;28;20226;-90
2023/04/11 12:20:26;;;;;;;0.30;0.30;;;7.20;99.90;;;;;;5041531;28;20635;-92
2023/04/11 12:22:52;;;;;;;0.30;0.30;;;7.30;99.90;;;;;;5036934;28;20519;-91
2023/04/11 12:25:17;;;;;;;0.30;0.30;;;7.10;99.90;;;;;;5057060;28;20429;-91
2023/04/11 12:27:44;;;;;;;0.30;0.30;;;7.40;99.90;;;;;;5040856;28;20448;-91
2023/04/11 12:30:11;;;;;;;0.30;0.30;;;7.30;99.90;;;;;;5037378;28;20174;-91
2023/04/11 12:32:37;;;;;;;0.30;0.30;;;7.20;99.90;;;;;;5035374;28;20488;-92
2023/04/11 12:35:04;;;;;;;0.30;0.30;;;7.00;99.90;;;;;;5054567;28;20437;-92
2023/04/11 12:37:31;;;;;;;0.30;0.30;;;7.20;99.90;;;;;;5040722;28;20182;-91
2023/04/11 12:39:56;;;;;;;0.30;0.30;;;7.10;99.90;;;;;;5055783;28;20451;-91
2023/04/11 12:42:22;;;;;;;0.30;0.30;;;7.10;99.90;;;;;;5052275;28;20532;-89
2023/04/11 12:44:49;;;;;;;0.30;0.30;;;7.20;99.90;;;;;;5038783;28;20237;-87
2023/04/11 12:47:15;;;;;;;0.30;0.30;;;7.30;99.90;;;;;;5031591;28;20199;-89
2023/04/11 12:49:40;;;;;;;0.30;0.30;;;7.20;99.90;;;;;;5032247;28;20536;-89
2023/04/11 12:52:07;;;;;;;0.20;0.20;;;7.40;99.90;;;;;;5032256;28;20242;-87
2023/04/11 12:54:32;;;;;;;0.20;0.20;;;7.40;99.90;;;;;;5041514;28;20186;-91
2023/04/11 12:56:58;;;;;;;0.30;0.30;;;7.80;99.90;;;;;;5048062;28;20540;-89